Time;durP1;ratioP1;P1;durP2;ratioP2;P2;SDS_P1;SDS_P2;PMS_P1;PMS_P2;Temp;Humidity;BMP_temperature;BMP_pressure;BME280_temperature;BME280_humidity;BME280_pressure;Samples;Min_cycle;Max_cycle;Signal;HPM_P1;HPM_P2
2023/05/24 03:00:41;;;;;;;4.55;2.25;;;23.60;43.30;;;;;;5801726;23;46096;-62
2023/05/24 03:03:07;;;;;;;4.00;1.92;;;23.60;43.60;;;;;;4946777;28;45987;-57
2023/05/24 03:05:32;;;;;;;4.95;2.33;;;23.60;43.50;;;;;;4971602;28;45545;-59
2023/05/24 03:07:58;;;;;;;2.78;1.73;;;23.60;43.60;;;;;;4977662;28;44747;-58
2023/05/24 03:10:23;;;;;;;4.40;1.77;;;23.60;43.50;;;;;;4973719;28;45251;-59
2023/05/24 03:12:49;;;;;;;2.83;1.67;;;23.60;44.10;;;;;;4974316;28;47479;-55
2023/05/24 03:15:15;;;;;;;6.93;2.20;;;23.60;43.50;;;;;;4980311;28;45504;-56
2023/05/24 03:17:40;;;;;;;4.30;1.65;;;23.50;43.50;;;;;;4970731;28;45548;-57
2023/05/24 03:20:06;;;;;;;4.40;2.30;;;23.60;43.40;;;;;;4982180;28;45635;-60
2023/05/24 03:22:32;;;;;;;9.90;2.22;;;23.50;43.50;;;;;;4978123;28;45669;-57
2023/05/24 03:24:57;;;;;;;4.78;2.13;;;23.50;43.50;;;;;;4957036;28;44888;-57
2023/05/24 03:27:23;;;;;;;4.32;2.08;;;23.50;44.00;;;;;;4956727;28;45442;-60
2023/05/24 03:29:48;;;;;;;4.07;2.10;;;23.50;43.50;;;;;;4977832;28;45389;-56
2023/05/24 03:32:14;;;;;;;6.60;2.50;;;23.50;44.00;;;;;;4961899;28;45533;-59
2023/05/24 03:34:40;;;;;;;5.30;1.90;;;23.50;43.50;;;;;;4986643;28;45658;-58
2023/05/24 03:37:05;;;;;;;3.45;2.05;;;23.50;43.50;;;;;;4971166;28;44895;-60
2023/05/24 03:39:31;;;;;;;3.35;1.90;;;23.50;43.50;;;;;;4982782;28;45250;-59
2023/05/24 03:41:56;;;;;;;3.42;2.30;;;23.50;43.50;;;;;;4974214;28;45623;-57
2023/05/24 03:44:22;;;;;;;4.97;2.15;;;23.50;43.50;;;;;;4968006;28;45992;-57
2023/05/24 03:46:47;;;;;;;3.65;1.80;;;23.50;43.50;;;;;;4978120;28;45119;-55
2023/05/24 03:49:13;;;;;;;5.25;1.80;;;23.50;43.50;;;;;;4983569;28;45760;-60
2023/05/24 03:51:39;;;;;;;3.75;1.55;;;23.50;43.60;;;;;;4976295;28;45301;-56
2023/05/24 03:54:04;;;;;;;2.92;1.65;;;23.50;43.50;;;;;;4964280;28;46041;-62
2023/05/24 03:56:30;;;;;;;3.95;2.00;;;23.50;43.50;;;;;;4975824;28;45167;-56
2023/05/24 03:58:59;;;;;;;3.67;1.75;;;23.50;43.60;;;;;;4980605;28;45115;-60
2023/05/24 04:01:24;;;;;;;3.38;1.77;;;23.40;43.50;;;;;;4966969;28;45340;-60
2023/05/24 04:03:51;;;;;;;3.40;1.73;;;23.50;43.60;;;;;;4963723;28;45292;-60
2023/05/24 04:06:17;;;;;;;7.35;1.83;;;23.50;43.60;;;;;;4966441;28;45427;-57
2023/05/24 04:08:43;;;;;;;2.95;1.90;;;23.40;43.60;;;;;;4960555;28;45883;-59
2023/05/24 04:11:08;;;;;;;3.78;1.67;;;23.40;43.50;;;;;;4971602;28;47568;-59
2023/05/24 04:13:34;;;;;;;4.85;1.90;;;23.40;43.50;;;;;;4967127;28;45107;-59
2023/05/24 04:15:59;;;;;;;4.57;2.13;;;23.40;43.40;;;;;;4972189;28;45136;-58
2023/05/24 04:18:25;;;;;;;3.30;1.92;;;23.40;43.50;;;;;;4964077;28;45472;-57
2023/05/24 04:20:51;;;;;;;3.95;2.13;;;23.40;43.40;;;;;;4981571;28;47283;-59
2023/05/24 04:23:16;;;;;;;4.90;2.22;;;23.40;43.50;;;;;;4987735;28;45896;-58
2023/05/24 04:25:42;;;;;;;2.78;1.60;;;23.40;43.50;;;;;;4976978;28;45288;-57
2023/05/24 04:28:08;;;;;;;5.15;2.00;;;23.40;43.50;;;;;;4988351;28;45190;-58
2023/05/24 04:30:35;;;;;;;3.75;1.85;;;23.30;43.50;;;;;;4975139;28;46773;-56
2023/05/24 04:33:02;;;;;;;4.07;2.20;;;23.30;43.40;;;;;;4959925;28;45207;-58
2023/05/24 04:35:29;;;;;;;3.25;1.95;;;23.30;43.40;;;;;;4962050;28;44754;-59
2023/05/24 04:37:54;;;;;;;2.80;1.80;;;23.30;43.40;;;;;;4981295;28;44934;-56
2023/05/24 04:40:21;;;;;;;5.18;2.03;;;23.30;43.40;;;;;;4977019;28;46345;-58
2023/05/24 04:42:47;;;;;;;2.92;1.77;;;23.30;43.30;;;;;;4964271;28;46004;-60
2023/05/24 04:45:13;;;;;;;4.78;1.83;;;23.30;43.30;;;;;;4986434;28;44712;-66
2023/05/24 04:47:39;;;;;;;4.22;2.22;;;23.30;43.30;;;;;;4948965;28;45641;-58
2023/05/24 04:50:05;;;;;;;4.57;2.25;;;23.30;43.30;;;;;;4979597;28;45549;-58
2023/05/24 04:52:32;;;;;;;4.03;2.17;;;23.30;43.20;;;;;;4967010;28;45210;-60
2023/05/24 04:54:57;;;;;;;4.25;1.90;;;23.30;43.30;;;;;;4971227;28;45402;-60
2023/05/24 04:57:23;;;;;;;3.08;1.77;;;23.30;43.20;;;;;;4977025;28;45150;-59
2023/05/24 04:59:48;;;;;;;3.97;1.77;;;23.30;43.20;;;;;;4978792;28;45611;-58
2023/05/24 05:02:14;;;;;;;5.63;2.20;;;23.30;43.30;;;;;;4958231;28;45317;-56
2023/05/24 05:04:39;;;;;;;3.83;2.05;;;23.30;43.30;;;;;;4983862;28;45048;-63
2023/05/24 05:07:06;;;;;;;5.90;1.75;;;23.30;43.30;;;;;;4965066;28;44741;-60
2023/05/24 05:09:31;;;;;;;3.80;1.75;;;23.30;43.20;;;;;;4965165;28;45655;-52
2023/05/24 05:11:57;;;;;;;5.93;2.00;;;23.30;43.30;;;;;;4985559;28;45333;-60
2023/05/24 05:14:22;;;;;;;4.82;1.83;;;23.30;43.30;;;;;;4984823;28;45310;-60
2023/05/24 05:16:48;;;;;;;4.75;1.90;;;23.30;43.30;;;;;;4973461;28;46249;-59
2023/05/24 05:19:13;;;;;;;4.80;1.77;;;23.30;43.80;;;;;;4978449;28;45309;-60
2023/05/24 05:21:39;;;;;;;3.72;1.80;;;23.30;43.30;;;;;;4973478;28;45638;-60
2023/05/24 05:24:05;;;;;;;3.88;1.92;;;23.30;43.20;;;;;;4999816;28;45207;-58
2023/05/24 05:26:30;;;;;;;5.40;1.88;;;23.30;43.20;;;;;;4975875;28;45420;-60
2023/05/24 05:28:56;;;;;;;5.68;1.40;;;23.30;43.20;;;;;;4946006;28;46644;-65
2023/05/24 05:31:22;;;;;;;4.25;1.58;;;23.30;43.20;;;;;;4945797;28;45492;-58
2023/05/24 05:33:48;;;;;;;5.80;1.98;;;23.20;43.30;;;;;;4983350;28;44999;-57
2023/05/24 05:36:14;;;;;;;4.30;2.05;;;23.30;43.20;;;;;;4973230;28;45054;-65
2023/05/24 05:38:40;;;;;;;3.13;1.77;;;23.30;43.10;;;;;;4964190;28;45920;-60
2023/05/24 05:41:06;;;;;;;5.40;1.88;;;23.30;43.20;;;;;;4976906;28;45372;-56
2023/05/24 05:43:31;;;;;;;2.83;1.65;;;23.30;43.20;;;;;;4989879;28;45547;-64
2023/05/24 05:45:57;;;;;;;5.43;1.90;;;23.30;43.20;;;;;;4963479;28;46135;-59
2023/05/24 05:48:22;;;;;;;4.47;2.00;;;23.20;43.10;;;;;;4986666;28;46325;-59
2023/05/24 05:50:48;;;;;;;4.97;2.00;;;23.30;43.20;;;;;;4983519;28;45420;-58
2023/05/24 05:53:14;;;;;;;6.50;2.15;;;23.20;43.10;;;;;;4974431;28;45302;-61
2023/05/24 05:55:40;;;;;;;3.65;2.00;;;23.20;43.10;;;;;;4983839;28;45256;-60
2023/05/24 05:58:05;;;;;;;5.15;2.08;;;23.20;43.10;;;;;;4987240;28;45447;-59
2023/05/24 06:00:31;;;;;;;3.65;2.00;;;23.20;43.10;;;;;;4949730;28;44710;-60
2023/05/24 06:02:56;;;;;;;5.32;2.20;;;23.20;43.10;;;;;;4990608;28;45328;-60
2023/05/24 06:05:22;;;;;;;3.85;2.35;;;23.20;43.10;;;;;;4976872;28;45351;-58
2023/05/24 06:07:47;;;;;;;6.13;2.30;;;23.20;43.10;;;;;;4977120;28;45926;-57
2023/05/24 06:10:13;;;;;;;5.13;2.20;;;23.20;43.20;;;;;;4980095;28;45039;-64
2023/05/24 06:12:39;;;;;;;4.10;1.92;;;23.20;43.30;;;;;;4962767;28;45568;-63
2023/05/24 06:15:06;;;;;;;7.78;2.03;;;23.20;43.20;;;;;;4976872;28;45602;-67
2023/05/24 06:17:33;;;;;;;4.72;1.90;;;23.20;43.20;;;;;;4946545;28;45216;-61
2023/05/24 06:19:59;;;;;;;4.72;2.03;;;23.20;43.20;;;;;;4982210;28;45486;-57
2023/05/24 06:22:26;;;;;;;3.17;2.00;;;23.20;43.30;;;;;;4952867;28;45796;-59
2023/05/24 06:24:52;;;;;;;4.45;2.00;;;23.20;43.30;;;;;;4987096;28;46011;-57
2023/05/24 06:27:18;;;;;;;6.10;2.40;;;23.20;43.20;;;;;;4982170;28;46802;-61
2023/05/24 06:29:43;;;;;;;5.57;2.17;;;23.20;43.30;;;;;;4977384;28;45435;-59
2023/05/24 06:32:09;;;;;;;4.13;1.73;;;23.20;43.30;;;;;;4976231;28;44943;-61
2023/05/24 06:34:34;;;;;;;3.92;1.77;;;23.20;43.30;;;;;;4985448;28;45575;-58
2023/05/24 06:37:01;;;;;;;6.22;2.17;;;23.20;43.30;;;;;;4976716;28;46503;-59
2023/05/24 06:39:26;;;;;;;3.90;1.90;;;23.20;43.30;;;;;;4963407;28;45423;-58
2023/05/24 06:41:52;;;;;;;5.30;1.80;;;23.20;43.30;;;;;;4979791;28;45239;-58
2023/05/24 06:44:18;;;;;;;4.50;2.00;;;23.20;43.40;;;;;;4947243;28;44919;-55
2023/05/24 06:46:43;;;;;;;3.95;1.95;;;23.20;43.40;;;;;;4954491;28;45489;-59
2023/05/24 06:49:11;;;;;;;4.68;2.15;;;23.20;43.30;;;;;;4982048;28;45339;-60
2023/05/24 06:51:37;;;;;;;5.40;1.95;;;23.20;43.30;;;;;;4971381;28;44792;-60
2023/05/24 06:54:02;;;;;;;5.07;1.98;;;23.20;43.30;;;;;;4991798;28;45094;-57
2023/05/24 06:56:28;;;;;;;4.47;2.13;;;23.20;43.30;;;;;;4975532;28;46265;-62
2023/05/24 06:58:54;;;;;;;7.65;2.17;;;23.20;43.30;;;;;;4974755;28;45409;-60
2023/05/24 07:01:21;;;;;;;5.55;2.00;;;23.20;43.30;;;;;;4941386;28;45584;-57
2023/05/24 07:03:46;;;;;;;3.50;1.65;;;23.20;43.30;;;;;;4947155;28;45575;-60
2023/05/24 07:06:13;;;;;;;5.05;1.80;;;23.20;43.30;;;;;;4954817;28;45501;-60
2023/05/24 07:08:41;;;;;;;4.60;1.83;;;23.20;43.30;;;;;;4933017;28;45089;-61
2023/05/24 07:11:08;;;;;;;5.53;2.00;;;23.20;43.30;;;;;;4958107;28;45069;-56
2023/05/24 07:13:34;;;;;;;3.72;1.70;;;23.10;43.30;;;;;;4930144;28;45454;-59
2023/05/24 07:16:00;;;;;;;6.03;2.15;;;23.10;43.20;;;;;;4965640;28;45651;-58
2023/05/24 07:18:26;;;;;;;3.58;1.52;;;23.20;43.20;;;;;;4961758;28;45056;-58
2023/05/24 07:20:52;;;;;;;3.90;1.67;;;23.20;43.30;;;;;;4954445;28;45624;-59
2023/05/24 07:23:17;;;;;;;5.40;1.50;;;23.20;43.30;;;;;;4964978;28;45657;-59
2023/05/24 07:25:43;;;;;;;6.28;2.17;;;23.20;43.20;;;;;;4942706;28;45357;-56
2023/05/24 07:28:09;;;;;;;4.35;2.08;;;23.20;43.20;;;;;;4963521;28;45745;-58
2023/05/24 07:30:34;;;;;;;4.68;1.88;;;23.20;43.20;;;;;;4953571;28;44852;-56
2023/05/24 07:33:00;;;;;;;3.33;1.70;;;23.20;43.20;;;;;;4966862;28;45277;-57
2023/05/24 07:35:28;;;;;;;4.65;2.00;;;23.20;43.10;;;;;;4964293;28;45242;-61
2023/05/24 07:37:53;;;;;;;3.47;1.70;;;23.20;43.20;;;;;;4963099;28;45402;-57
2023/05/24 07:40:19;;;;;;;5.05;1.75;;;23.20;43.20;;;;;;4940849;28;45196;-64
2023/05/24 07:42:46;;;;;;;3.55;1.48;;;23.20;43.10;;;;;;4949308;28;45455;-62
2023/05/24 07:45:12;;;;;;;4.78;1.90;;;23.20;43.10;;;;;;4953352;28;45616;-57
2023/05/24 07:47:37;;;;;;;3.60;1.83;;;23.20;43.20;;;;;;4944669;28;45126;-60
2023/05/24 07:50:03;;;;;;;3.75;1.85;;;23.10;43.10;;;;;;4958272;28;45623;-68
2023/05/24 07:52:30;;;;;;;5.30;1.58;;;23.10;43.10;;;;;;4934337;28;44886;-56
2023/05/24 07:54:55;;;;;;;5.95;1.80;;;23.20;43.10;;;;;;4966272;28;45549;-60
2023/05/24 07:57:21;;;;;;;5.38;2.00;;;23.10;43.10;;;;;;4967722;28;45185;-59
2023/05/24 07:59:47;;;;;;;2.75;1.42;;;23.10;43.00;;;;;;4957481;28;45464;-61
2023/05/24 08:02:14;;;;;;;7.75;1.90;;;23.10;43.00;;;;;;4973915;28;45482;-59
2023/05/24 08:04:39;;;;;;;5.72;2.03;;;23.10;43.00;;;;;;4991412;28;45564;-60
2023/05/24 08:07:05;;;;;;;5.07;2.05;;;23.10;43.00;;;;;;4952191;28;50477;-63
2023/05/24 08:09:34;;;;;;;5.35;1.88;;;23.10;43.00;;;;;;4980384;28;45594;-57
2023/05/24 08:12:01;;;;;;;4.05;1.63;;;23.10;43.00;;;;;;4963453;28;46104;-61
2023/05/24 08:14:26;;;;;;;5.10;1.80;;;23.10;42.90;;;;;;4972609;28;46217;-59
2023/05/24 08:16:52;;;;;;;5.00;2.05;;;23.10;42.90;;;;;;4975455;28;45271;-60
2023/05/24 08:19:18;;;;;;;5.22;1.73;;;23.10;43.00;;;;;;4966275;28;45283;-58
2023/05/24 08:21:43;;;;;;;6.07;1.65;;;23.10;42.90;;;;;;4970864;28;45653;-60
2023/05/24 08:24:09;;;;;;;4.15;1.65;;;23.10;42.90;;;;;;4990243;28;45288;-59
2023/05/24 08:26:35;;;;;;;9.63;2.00;;;23.10;42.90;;;;;;4979396;28;45407;-62
2023/05/24 08:29:01;;;;;;;4.00;1.55;;;23.10;42.90;;;;;;4976401;28;45546;-59
2023/05/24 08:31:27;;;;;;;6.82;1.83;;;23.10;42.80;;;;;;4975350;28;45130;-66
2023/05/24 08:33:53;;;;;;;2.88;1.48;;;23.10;42.80;;;;;;4987011;28;45003;-59
2023/05/24 08:36:19;;;;;;;5.40;1.73;;;23.10;42.80;;;;;;4962243;28;45417;-59
2023/05/24 08:38:45;;;;;;;8.40;1.80;;;23.10;42.80;;;;;;4984327;28;45504;-55
2023/05/24 08:41:10;;;;;;;4.40;1.60;;;23.10;42.90;;;;;;4960083;28;46017;-61
2023/05/24 08:43:37;;;;;;;4.32;1.80;;;23.10;42.80;;;;;;4954506;28;45404;-59
2023/05/24 08:46:03;;;;;;;3.08;1.60;;;23.00;42.80;;;;;;4963000;28;45317;-60
2023/05/24 08:48:28;;;;;;;4.80;1.83;;;23.00;42.80;;;;;;4953729;28;45170;-58
2023/05/24 08:50:54;;;;;;;4.22;1.65;;;23.10;42.70;;;;;;4967940;28;45968;-63
2023/05/24 08:53:20;;;;;;;5.72;1.92;;;23.00;42.70;;;;;;4967104;28;47233;-54
2023/05/24 08:55:46;;;;;;;4.32;1.80;;;23.10;42.70;;;;;;4961363;28;45403;-61
2023/05/24 08:58:11;;;;;;;4.22;1.58;;;23.00;42.70;;;;;;4958896;28;45268;-57
2023/05/24 09:00:37;;;;;;;6.68;1.70;;;23.00;42.60;;;;;;4957935;28;45996;-56
2023/05/24 09:03:03;;;;;;;5.78;1.80;;;23.00;42.60;;;;;;4977056;28;46643;-59
2023/05/24 09:05:29;;;;;;;5.88;1.70;;;23.00;42.60;;;;;;4968273;28;45136;-63
2023/05/24 09:07:55;;;;;;;4.68;2.00;;;23.00;42.60;;;;;;4963778;28;45417;-61
2023/05/24 09:10:20;;;;;;;4.28;1.75;;;23.00;42.60;;;;;;4954599;28;45331;-58
2023/05/24 09:12:48;;;;;;;7.55;2.03;;;23.00;42.70;;;;;;4952963;28;46724;-66
2023/05/24 09:15:13;;;;;;;5.35;2.00;;;23.00;42.60;;;;;;4972332;28;47032;-58
2023/05/24 09:17:39;;;;;;;8.95;2.00;;;23.00;42.60;;;;;;4963104;28;45829;-56
2023/05/24 09:20:09;;;;;;;6.20;1.70;;;23.00;42.60;;;;;;4977728;28;45213;-67
2023/05/24 09:22:36;;;;;;;9.70;1.90;;;23.00;42.60;;;;;;4970717;28;46240;-58
2023/05/24 09:25:03;;;;;;;6.22;2.60;;;23.00;42.60;;;;;;4983221;28;45218;-68
2023/05/24 09:27:30;;;;;;;6.47;2.50;;;23.00;42.60;;;;;;4949656;28;44965;-61
2023/05/24 09:29:56;;;;;;;6.95;2.58;;;23.00;42.70;;;;;;4945668;28;45034;-59
2023/05/24 09:32:23;;;;;;;5.97;2.50;;;23.00;42.50;;;;;;4986967;28;46593;-57
2023/05/24 09:34:50;;;;;;;5.85;2.05;;;23.00;42.60;;;;;;4963682;28;44939;-60
2023/05/24 09:37:17;;;;;;;4.35;2.22;;;23.00;42.70;;;;;;4971404;28;45492;-61
2023/05/24 09:39:51;;;;;;;5.10;2.38;;;23.00;42.60;;;;;;4981586;28;45494;-59
2023/05/24 09:42:21;;;;;;;5.93;2.03;;;23.00;42.60;;;;;;4965700;28;45626;-54
2023/05/24 09:44:47;;;;;;;5.72;2.10;;;23.00;42.60;;;;;;4972208;28;45508;-57
2023/05/24 09:47:13;;;;;;;7.00;2.30;;;23.00;42.70;;;;;;4973126;28;45663;-65
2023/05/24 09:49:39;;;;;;;8.18;2.13;;;23.00;42.70;;;;;;4952622;28;45569;-60
2023/05/24 09:52:05;;;;;;;4.38;2.13;;;23.00;42.60;;;;;;4975581;28;45568;-62
2023/05/24 09:54:33;;;;;;;4.75;1.95;;;23.00;42.70;;;;;;4986279;28;45249;-61
2023/05/24 09:57:00;;;;;;;5.70;1.90;;;23.00;42.70;;;;;;4967481;28;45458;-62
2023/05/24 09:59:26;;;;;;;5.95;2.00;;;23.00;42.80;;;;;;4950060;28;45347;-59
2023/05/24 10:02:01;;;;;;;6.63;1.58;;;23.00;42.80;;;;;;4963602;28;45121;-59
2023/05/24 10:04:33;;;;;;;5.93;1.90;;;23.00;42.70;;;;;;4968393;28;45119;-56
2023/05/24 10:06:58;;;;;;;5.43;2.03;;;23.00;42.70;;;;;;4971940;28;45244;-60
2023/05/24 10:09:24;;;;;;;5.32;2.00;;;23.00;42.80;;;;;;4968072;28;44829;-58
2023/05/24 10:11:50;;;;;;;5.78;1.60;;;23.00;42.80;;;;;;4967225;28;46368;-60
2023/05/24 10:14:16;;;;;;;4.38;1.70;;;23.00;42.80;;;;;;4936168;28;45022;-62
2023/05/24 10:16:42;;;;;;;3.15;1.77;;;23.00;42.90;;;;;;4949684;28;45338;-60
2023/05/24 10:19:07;;;;;;;3.75;1.83;;;23.00;42.90;;;;;;4980061;28;44753;-60
2023/05/24 10:21:33;;;;;;;6.03;1.88;;;23.00;42.90;;;;;;4976848;28;45871;-58
2023/05/24 10:23:58;;;;;;;3.47;1.70;;;23.00;42.90;;;;;;4965572;28;45208;-60
2023/05/24 10:26:27;;;;;;;2.95;1.30;;;23.00;42.90;;;;;;4962839;28;46316;-56
2023/05/24 10:28:55;;;;;;;5.22;1.88;;;23.00;42.80;;;;;;4960417;28;45725;-61
2023/05/24 10:31:25;;;;;;;3.58;1.63;;;23.00;42.80;;;;;;4975229;28;46178;-59
2023/05/24 10:33:50;;;;;;;6.38;1.67;;;23.10;42.80;;;;;;4985367;28;45820;-56
2023/05/24 10:36:16;;;;;;;4.55;2.03;;;23.10;42.80;;;;;;4954467;28;45546;-60
2023/05/24 10:38:42;;;;;;;4.32;1.80;;;23.10;42.80;;;;;;4961050;28;45073;-57
2023/05/24 10:41:08;;;;;;;5.30;1.73;;;23.10;42.80;;;;;;4961949;28;46001;-59
2023/05/24 10:43:36;;;;;;;4.30;2.00;;;23.10;42.90;;;;;;4988321;28;44918;-60
2023/05/24 10:46:03;;;;;;;5.57;1.80;;;23.10;42.80;;;;;;4947579;28;45282;-60
2023/05/24 10:48:28;;;;;;;5.88;1.92;;;23.10;42.80;;;;;;4981446;28;45486;-61
2023/05/24 10:50:55;;;;;;;4.25;1.60;;;23.10;42.80;;;;;;4974458;28;46817;-57
2023/05/24 10:53:26;;;;;;;6.10;1.73;;;23.10;42.80;;;;;;4975480;28;45817;-56
2023/05/24 10:55:58;;;;;;;6.78;1.95;;;23.20;42.50;;;;;;4977704;28;45490;-59
2023/05/24 10:58:34;;;;;;;4.93;1.63;;;23.10;41.70;;;;;;4968273;28;45638;-56
2023/05/24 11:00:59;;;;;;;4.22;1.95;;;23.00;40.30;;;;;;4957945;28;46092;-67
2023/05/24 11:03:30;;;;;;;6.20;2.35;;;23.00;40.20;;;;;;4978765;28;45435;-61
2023/05/24 11:05:55;;;;;;;6.90;2.40;;;23.00;39.80;;;;;;4943214;28;45150;-62
2023/05/24 11:08:28;;;;;;;6.95;2.58;;;23.00;39.70;;;;;;4988584;28;45548;-59
2023/05/24 11:11:10;;;;;;;4.97;1.90;;;23.00;39.20;;;;;;4952642;28;45797;-60
2023/05/24 11:13:37;;;;;;;7.72;1.60;;;22.90;38.70;;;;;;4989361;28;45352;-60
2023/05/24 11:16:06;;;;;;;5.10;1.70;;;23.00;39.00;;;;;;4957106;28;46758;-61
2023/05/24 11:18:32;;;;;;;4.15;1.90;;;23.00;38.80;;;;;;4952418;28;45854;-69
2023/05/24 11:21:02;;;;;;;3.65;1.60;;;23.00;38.70;;;;;;4982396;28;46714;-64
2023/05/24 11:23:28;;;;;;;5.13;1.77;;;23.00;38.40;;;;;;4960323;28;44766;-59
2023/05/24 11:25:53;;;;;;;6.13;1.80;;;23.00;38.50;;;;;;4948636;28;45479;-59
2023/05/24 11:28:19;;;;;;;7.68;2.10;;;23.00;38.50;;;;;;4978582;28;45449;-56
2023/05/24 11:30:45;;;;;;;6.75;2.30;;;23.00;38.40;;;;;;4974666;28;45484;-63
2023/05/24 11:33:18;;;;;;;8.15;1.98;;;23.00;38.10;;;;;;4970823;28;45267;-56
2023/05/24 11:35:44;;;;;;;6.80;1.58;;;23.00;37.70;;;;;;4980534;28;44891;-61
2023/05/24 11:38:12;;;;;;;5.97;1.80;;;23.00;37.70;;;;;;4974604;28;45261;-57
2023/05/24 11:40:43;;;;;;;5.25;1.90;;;23.00;37.90;;;;;;4961900;28;46426;-53
2023/05/24 11:43:19;;;;;;;7.03;1.75;;;23.00;38.00;;;;;;4950750;28;45322;-56
2023/05/24 11:45:47;;;;;;;4.13;1.60;;;23.00;37.80;;;;;;4959801;28;45493;-53
2023/05/24 11:48:13;;;;;;;4.95;1.60;;;23.00;37.50;;;;;;4954688;28;45519;-58
2023/05/24 11:50:40;;;;;;;5.93;1.80;;;23.00;37.50;;;;;;4980467;28;46809;-61
2023/05/24 11:53:08;;;;;;;5.97;1.73;;;23.00;37.60;;;;;;4995968;28;45296;-59
2023/05/24 11:55:33;;;;;;;8.90;2.13;;;23.00;37.40;;;;;;4973082;28;46322;-58
2023/05/24 11:57:59;;;;;;;6.43;1.63;;;23.00;37.20;;;;;;4988819;28;45225;-58
2023/05/24 12:00:27;;;;;;;10.70;1.58;;;23.00;37.30;;;;;;4947697;28;45477;-58
2023/05/24 12:03:00;;;;;;;5.18;1.73;;;23.00;36.90;;;;;;4983610;28;45277;-64
2023/05/24 12:05:25;;;;;;;4.47;1.47;;;23.00;36.90;;;;;;4947407;28;44771;-56
2023/05/24 12:08:12;;;;;;;4.95;1.80;;;23.00;36.80;;;;;;4987737;28;45335;-57
2023/05/24 12:10:39;;;;;;;5.03;1.70;;;23.10;35.50;;;;;;4960490;28;46961;-57
2023/05/24 12:13:08;;;;;;;7.10;1.58;;;23.00;36.30;;;;;;4980359;28;45228;-64
2023/05/24 12:15:34;;;;;;;4.32;1.65;;;23.00;36.10;;;;;;4957820;28;45492;-58
2023/05/24 12:17:59;;;;;;;5.05;1.70;;;23.00;35.70;;;;;;4964735;28;45613;-60
2023/05/24 12:20:28;;;;;;;4.50;1.33;;;23.00;35.60;;;;;;4976339;28;45431;-59
2023/05/24 12:22:54;;;;;;;4.60;1.83;;;23.00;35.50;;;;;;4970601;28;44995;-56
2023/05/24 12:25:21;;;;;;;5.95;1.88;;;23.00;36.00;;;;;;4980450;28;45038;-61
2023/05/24 12:27:56;;;;;;;4.88;1.83;;;22.90;35.90;;;;;;4986327;28;45325;-57
2023/05/24 12:30:25;;;;;;;6.82;1.70;;;23.00;35.10;;;;;;4976041;28;46368;-57
2023/05/24 12:32:53;;;;;;;8.50;1.83;;;23.00;35.40;;;;;;4957390;28;45338;-59
2023/05/24 12:35:19;;;;;;;8.40;1.63;;;23.00;35.60;;;;;;4980893;28;45301;-67
2023/05/24 12:37:44;;;;;;;7.05;1.23;;;23.00;35.70;;;;;;4981652;28;45396;-58
2023/05/24 12:40:32;;;;;;;5.53;1.80;;;23.00;35.80;;;;;;4976939;28;46157;-63
2023/05/24 12:42:58;;;;;;;5.68;1.95;;;23.00;35.10;;;;;;4963833;28;45213;-54
2023/05/24 12:45:24;;;;;;;6.22;2.13;;;23.00;35.60;;;;;;4945636;28;45222;-56
2023/05/24 12:47:50;;;;;;;5.28;1.88;;;23.00;35.70;;;;;;4979093;28;45290;-66
2023/05/24 12:50:20;;;;;;;7.68;2.15;;;23.00;35.70;;;;;;4960246;28;46401;-67
2023/05/24 12:52:46;;;;;;;6.72;1.70;;;23.00;35.40;;;;;;4963751;28;45450;-60
2023/05/24 12:55:15;;;;;;;5.80;1.70;;;23.00;35.40;;;;;;4979349;28;45417;-56
2023/05/24 12:57:41;;;;;;;5.88;2.03;;;23.00;35.20;;;;;;4980857;28;44781;-64
2023/05/24 13:00:09;;;;;;;7.25;1.95;;;23.00;34.80;;;;;;4958422;28;47244;-68
2023/05/24 13:02:35;;;;;;;7.75;1.98;;;23.00;35.00;;;;;;4954339;28;45014;-58
2023/05/24 13:05:01;;;;;;;6.72;1.83;;;23.00;35.00;;;;;;4988750;28;44935;-58
2023/05/24 13:07:26;;;;;;;7.78;1.95;;;23.00;35.00;;;;;;4967041;28;45782;-56
2023/05/24 13:09:52;;;;;;;4.22;1.67;;;23.00;35.10;;;;;;4966836;28;46402;-55
2023/05/24 13:12:17;;;;;;;3.47;1.40;;;23.00;35.20;;;;;;4989899;28;45386;-58
2023/05/24 13:14:43;;;;;;;6.15;1.75;;;23.00;35.10;;;;;;4987531;28;45089;-62
2023/05/24 13:17:09;;;;;;;4.57;2.00;;;23.10;35.10;;;;;;4959916;28;45287;-58
2023/05/24 13:19:34;;;;;;;5.70;1.90;;;23.10;35.10;;;;;;4987836;28;46720;-61
2023/05/24 13:22:00;;;;;;;4.35;1.63;;;23.10;35.00;;;;;;4963967;28;45392;-60
2023/05/24 13:24:26;;;;;;;3.47;1.33;;;23.10;34.90;;;;;;4986637;28;45431;-58
2023/05/24 13:26:51;;;;;;;4.25;1.65;;;23.10;34.60;;;;;;4984439;28;44870;-58
2023/05/24 13:29:17;;;;;;;4.30;1.90;;;23.10;34.70;;;;;;4971714;28;46332;-54
2023/05/24 13:31:43;;;;;;;4.28;1.20;;;23.10;34.80;;;;;;4973267;28;45164;-58
2023/05/24 13:34:09;;;;;;;5.68;1.67;;;23.20;34.60;;;;;;4951583;28;45374;-58
2023/05/24 13:36:35;;;;;;;2.90;1.13;;;23.10;34.40;;;;;;4959270;28;45592;-60
2023/05/24 13:39:02;;;;;;;3.78;1.25;;;23.10;34.70;;;;;;4982240;28;46391;-52
2023/05/24 13:41:28;;;;;;;5.38;1.20;;;23.20;34.70;;;;;;4958545;28;45748;-57
2023/05/24 13:43:54;;;;;;;4.75;1.52;;;23.20;34.60;;;;;;4958778;28;45219;-58
2023/05/24 13:46:19;;;;;;;6.15;1.83;;;23.20;34.50;;;;;;4975218;28;45239;-54
2023/05/24 13:48:46;;;;;;;6.00;1.60;;;23.20;34.40;;;;;;4979436;28;46433;-61
2023/05/24 13:51:11;;;;;;;5.38;1.42;;;23.20;34.30;;;;;;4973850;28;45244;-59
2023/05/24 13:53:37;;;;;;;4.78;1.48;;;23.20;34.10;;;;;;4968659;28;45447;-55
2023/05/24 13:56:03;;;;;;;7.00;1.48;;;23.20;33.70;;;;;;4978508;28;46005;-55
2023/05/24 13:58:28;;;;;;;3.15;1.30;;;23.20;33.80;;;;;;4986445;28;45626;-56
2023/05/24 14:00:55;;;;;;;5.32;1.60;;;23.20;33.80;;;;;;4965667;28;45227;-61
2023/05/24 14:03:20;;;;;;;3.55;1.45;;;23.10;33.90;;;;;;4978288;28;45083;-58
2023/05/24 14:05:46;;;;;;;4.65;1.50;;;23.20;33.90;;;;;;4954070;28;45200;-62
2023/05/24 14:08:11;;;;;;;7.03;1.60;;;23.20;33.70;;;;;;4952158;28;45931;-58
2023/05/24 14:10:37;;;;;;;8.23;2.05;;;23.20;33.60;;;;;;4938195;28;45987;-56
2023/05/24 14:13:06;;;;;;;5.30;2.08;;;23.20;33.60;;;;;;4985877;28;45499;-64
2023/05/24 14:15:32;;;;;;;8.82;1.95;;;23.20;33.60;;;;;;4953960;28;45637;-59
2023/05/24 14:18:00;;;;;;;4.10;2.10;;;23.20;33.80;;;;;;4978707;28;46804;-68
2023/05/24 14:20:26;;;;;;;7.05;2.40;;;23.20;33.80;;;;;;4980600;28;45306;-65
2023/05/24 14:22:51;;;;;;;8.73;2.03;;;23.20;33.80;;;;;;4967535;28;45370;-56
2023/05/24 14:25:17;;;;;;;8.38;2.00;;;23.20;33.90;;;;;;4952412;28;45521;-59
2023/05/24 14:27:43;;;;;;;3.50;1.52;;;23.20;33.80;;;;;;4987920;28;46745;-59
2023/05/24 14:30:11;;;;;;;5.63;1.80;;;23.20;33.70;;;;;;4980382;28;45302;-60
2023/05/24 14:32:37;;;;;;;7.43;2.00;;;23.20;33.70;;;;;;4975566;28;45356;-60
2023/05/24 14:35:03;;;;;;;6.47;2.13;;;23.20;33.70;;;;;;4977431;28;45643;-69
2023/05/24 14:37:28;;;;;;;9.63;2.50;;;23.20;33.80;;;;;;4963238;28;46319;-57
2023/05/24 14:39:54;;;;;;;4.28;1.90;;;23.30;34.10;;;;;;4975256;28;45927;-57
2023/05/24 14:42:20;;;;;;;4.65;1.83;;;23.20;33.60;;;;;;4984843;28;45829;-53
2023/05/24 14:44:45;;;;;;;8.93;1.90;;;23.30;33.70;;;;;;4976567;28;44717;-59
2023/05/24 14:47:11;;;;;;;4.45;1.50;;;23.30;33.60;;;;;;4944214;28;46268;-67
2023/05/24 14:49:37;;;;;;;2.38;1.35;;;23.30;33.60;;;;;;4953446;28;44665;-55
2023/05/24 14:52:02;;;;;;;7.07;1.50;;;23.30;33.60;;;;;;4967808;28;45122;-56
2023/05/24 14:54:28;;;;;;;4.82;1.80;;;23.30;33.60;;;;;;4971184;28;45674;-58
2023/05/24 14:56:53;;;;;;;4.35;1.70;;;23.30;33.30;;;;;;4971852;28;45426;-57
2023/05/24 14:59:19;;;;;;;4.90;1.85;;;23.30;33.40;;;;;;4981159;28;44592;-59
2023/05/24 15:01:44;;;;;;;5.47;2.05;;;23.30;33.30;;;;;;4969688;28;45532;-65
2023/05/24 15:04:10;;;;;;;4.47;1.45;;;23.30;33.50;;;;;;4983959;28;45860;-62
2023/05/24 15:06:36;;;;;;;4.85;1.85;;;23.40;33.30;;;;;;4980576;28;45535;-58
2023/05/24 15:09:01;;;;;;;4.25;1.42;;;23.30;33.20;;;;;;4985047;28;45281;-56
2023/05/24 15:11:28;;;;;;;6.28;2.00;;;23.40;33.00;;;;;;4977430;28;44889;-57
2023/05/24 15:13:57;;;;;;;5.85;1.70;;;23.40;33.00;;;;;;4953891;28;45296;-62
2023/05/24 15:16:23;;;;;;;6.30;1.85;;;23.40;33.20;;;;;;4973354;28;46712;-58
2023/05/24 15:18:49;;;;;;;4.43;1.48;;;23.40;33.20;;;;;;4961679;28;48254;-62
2023/05/24 15:21:14;;;;;;;6.50;1.45;;;23.40;33.90;;;;;;4966142;28;45088;-61
2023/05/24 15:23:40;;;;;;;6.45;1.73;;;23.40;33.50;;;;;;4964952;28;45389;-57
2023/05/24 15:26:07;;;;;;;4.38;1.85;;;23.30;33.60;;;;;;4969258;28;45403;-53
2023/05/24 15:28:32;;;;;;;6.18;1.48;;;23.30;33.70;;;;;;4970245;28;45216;-58
2023/05/24 15:30:58;;;;;;;5.35;1.90;;;23.30;33.70;;;;;;4954952;28;46813;-57
2023/05/24 15:33:25;;;;;;;8.52;1.50;;;23.30;33.50;;;;;;4967836;28;45408;-61
2023/05/24 15:35:51;;;;;;;6.18;1.60;;;23.30;33.60;;;;;;4970855;28;46095;-56
2023/05/24 15:38:17;;;;;;;4.13;1.45;;;23.30;33.70;;;;;;4966596;28;46511;-56
2023/05/24 15:40:43;;;;;;;4.20;1.60;;;23.30;34.20;;;;;;4958588;28;45381;-60
2023/05/24 15:43:09;;;;;;;8.88;1.73;;;23.30;33.60;;;;;;4975413;28;45415;-58